createdAt,value
2019-03-24T00:02:16.965Z,73.17
2019-03-24T00:06:22.653Z,73.29
2019-03-24T00:10:28.427Z,73.43
2019-03-24T00:14:34.093Z,72.94
2019-03-24T00:18:39.795Z,72.79
2019-03-24T00:22:45.556Z,72.92
2019-03-24T00:26:51.343Z,73.12
2019-03-24T00:30:57.129Z,73.13
2019-03-24T00:35:02.795Z,73.19
2019-03-24T00:39:08.840Z,73.40
2019-03-24T00:43:14.553Z,73.48
2019-03-24T00:47:20.433Z,73.53
2019-03-24T00:51:36.820Z,73.54
2019-03-24T00:55:42.618Z,73.71
2019-03-24T00:59:50.054Z,73.58
2019-03-24T01:03:55.815Z,73.63
2019-03-24T01:08:22.883Z,73.36
2019-03-24T01:12:28.525Z,73.58
2019-03-24T01:16:37.458Z,73.28
2019-03-24T01:20:43.692Z,73.42
2019-03-24T01:24:49.542Z,73.71
2019-03-24T01:28:55.455Z,73.70
2019-03-24T01:33:23.586Z,73.55
2019-03-24T01:37:29.871Z,73.62
2019-03-24T01:41:38.374Z,73.96
2019-03-24T01:45:44.228Z,73.86
2019-03-24T01:49:52.077Z,73.76
2019-03-24T01:53:59.430Z,73.89
2019-03-24T01:58:25.467Z,73.70
2019-03-24T02:02:31.187Z,73.25
2019-03-24T02:06:38.662Z,73.40
2019-03-24T02:10:50.311Z,72.96
2019-03-24T02:14:56.126Z,72.74
2019-03-24T02:19:21.726Z,72.87
2019-03-24T02:23:38.724Z,73.02
2019-03-24T02:27:44.510Z,72.74
2019-03-24T02:32:09.092Z,73.04
2019-03-24T02:40:53.788Z,72.73
2019-03-24T02:44:59.532Z,72.64
2019-03-24T02:49:09.301Z,72.68
2019-03-24T02:53:15.005Z,72.50
2019-03-24T02:57:22.403Z,72.75
2019-03-24T03:01:28.161Z,72.56
2019-03-24T03:05:33.902Z,72.82
2019-03-24T03:09:39.731Z,72.93
2019-03-24T03:13:45.477Z,73.32
2019-03-24T03:17:51.212Z,73.63
2019-03-24T03:22:08.017Z,73.81
2019-03-24T03:26:14.799Z,74.24
2019-03-24T03:30:20.517Z,74.06
2019-03-24T03:34:26.157Z,74.12
2019-03-24T03:38:31.843Z,74.50
2019-03-24T03:42:37.801Z,74.33
2019-03-24T03:46:52.628Z,74.53
2019-03-24T03:51:10.010Z,74.71
2019-03-24T03:55:15.677Z,74.65
2019-03-24T03:59:21.333Z,74.51
2019-03-24T04:03:26.966Z,74.83
2019-03-24T04:07:33.120Z,74.98
2019-03-24T04:11:38.890Z,75.02
2019-03-24T04:15:44.659Z,75.03
2019-03-24T04:19:52.056Z,75.19
2019-03-24T04:24:08.388Z,75.45
2019-03-24T04:28:14.128Z,75.29
2019-03-24T04:32:19.893Z,75.62
2019-03-24T04:36:25.499Z,75.33
2019-03-24T04:40:50.356Z,75.55
2019-03-24T04:44:58.446Z,75.09
2019-03-24T04:49:04.134Z,75.32
2019-03-24T04:53:09.805Z,74.94
2019-03-24T04:57:15.540Z,74.71
2019-03-24T05:01:21.333Z,74.65
2019-03-24T05:05:27.025Z,74.78
2019-03-24T05:14:03.242Z,74.24
2019-03-24T05:18:08.976Z,74.10
2019-03-24T05:22:14.743Z,74.18
2019-03-24T05:26:20.518Z,74.26
2019-03-24T05:30:26.171Z,73.87
2019-03-24T05:34:32.219Z,74.08
2019-03-24T05:38:38.786Z,74.06
2019-03-24T05:42:56.136Z,73.97
2019-03-24T05:47:01.972Z,73.84
2019-03-24T05:51:07.666Z,74.03
2019-03-24T05:55:13.331Z,74.00
2019-03-24T05:59:18.994Z,74.14
2019-03-24T06:03:43.496Z,74.00
2019-03-24T06:07:49.175Z,73.77
2019-03-24T06:12:13.787Z,73.54
2019-03-24T06:16:19.903Z,73.37
2019-03-24T06:20:44.831Z,72.95
2019-03-24T06:24:50.764Z,72.88
2019-03-24T06:28:56.448Z,72.41
2019-03-24T06:33:02.078Z,73.10
2019-03-24T06:37:07.737Z,72.41
2019-03-24T06:41:13.416Z,72.69
2019-03-24T06:45:27.939Z,72.55
2019-03-24T06:49:31.837Z,71.84
2019-03-24T06:53:49.065Z,72.47
2019-03-24T06:58:05.771Z,71.41
2019-03-24T07:02:22.136Z,71.23
2019-03-24T07:06:27.885Z,71.55
2019-03-24T07:10:33.609Z,71.55
2019-03-24T07:14:39.222Z,71.82
2019-03-24T07:18:44.891Z,71.29
2019-03-24T07:23:01.549Z,70.52
2019-03-24T07:27:18.314Z,70.74
2019-03-24T07:31:24.088Z,70.68
2019-03-24T07:35:48.624Z,70.44
2019-03-24T07:39:54.305Z,70.34
2019-03-24T07:48:19.282Z,69.35
2019-03-24T07:52:28.401Z,70.08
2019-03-24T07:56:34.343Z,68.85
2019-03-24T08:01:00.500Z,68.49
2019-03-24T08:05:06.621Z,67.03
2019-03-24T08:09:12.383Z,67.37
2019-03-24T08:13:36.865Z,66.10
2019-03-24T08:17:42.679Z,63.59
2019-03-24T08:21:48.705Z,63.59
2019-03-24T08:25:54.410Z,64.73
2019-03-24T08:30:00.470Z,64.60
2019-03-24T08:34:06.255Z,64.48
2019-03-24T08:38:12.059Z,65.41
2019-03-24T08:42:17.812Z,64.02
2019-03-24T08:46:23.630Z,63.45
2019-03-24T08:50:29.584Z,64.55
2019-03-24T08:54:35.304Z,64.55
2019-03-24T08:58:41.114Z,65.00
2019-03-24T09:02:46.849Z,64.04
2019-03-24T09:06:52.505Z,63.31
2019-03-24T09:10:58.204Z,61.99
2019-03-24T09:15:03.955Z,62.62
2019-03-24T09:19:12.098Z,60.96
2019-03-24T09:23:17.828Z,61.86
2019-03-24T09:27:23.552Z,60.17
2019-03-24T09:31:29.255Z,61.67
2019-03-24T09:35:35.037Z,61.33
2019-03-24T09:39:40.743Z,61.26
2019-03-24T09:43:46.440Z,61.29
2019-03-24T09:47:52.404Z,59.70
2019-03-24T09:51:58.151Z,58.78
2019-03-24T09:56:04.287Z,57.71
2019-03-24T10:00:10.270Z,55.85
2019-03-24T10:04:34.697Z,54.45
2019-03-24T10:08:47.021Z,55.13
2019-03-24T10:12:57.260Z,54.58
2019-03-24T10:17:03.066Z,54.57
2019-03-24T10:21:08.870Z,54.25
2019-03-24T10:25:14.659Z,54.19
2019-03-24T10:29:20.362Z,52.47
2019-03-24T10:33:26.123Z,51.78
2019-03-24T10:37:31.839Z,51.77
2019-03-24T10:46:03.874Z,50.83
2019-03-24T10:50:30.373Z,50.46
2019-03-24T10:54:36.092Z,46.46
2019-03-24T10:58:41.857Z,47.68
2019-03-24T11:02:58.446Z,45.83
2019-03-24T11:07:04.179Z,46.96
2019-03-24T11:11:09.828Z,47.96
2019-03-24T11:15:15.640Z,49.38
2019-03-24T11:19:21.365Z,47.95
2019-03-24T11:23:27.154Z,45.56
2019-03-24T11:27:32.866Z,46.53
2019-03-24T11:31:38.569Z,46.34
2019-03-24T11:40:33.257Z,46.20
2019-03-24T11:44:44.911Z,46.34
2019-03-24T11:48:51.175Z,46.18
2019-03-24T11:53:31.824Z,45.93
2019-03-24T12:21:08.401Z,43.42
2019-03-24T12:25:14.585Z,40.71
2019-03-24T12:29:20.333Z,42.11
2019-03-24T12:37:44.685Z,33.85
2019-03-24T12:46:14.978Z,37.02
2019-03-24T12:50:30.840Z,35.85
2019-03-24T12:59:04.882Z,33.15
2019-03-24T13:03:10.615Z,35.16
2019-03-24T13:07:16.267Z,35.93
2019-03-24T13:11:21.912Z,35.14
2019-03-24T13:15:27.962Z,35.57
2019-03-24T13:19:36.015Z,37.86
2019-03-24T13:23:46.848Z,36.61
2019-03-24T13:27:52.506Z,38.76
2019-03-24T13:31:58.475Z,37.68
2019-03-24T13:36:23.110Z,36.97
2019-03-24T13:44:46.086Z,34.57
2019-03-24T13:48:51.735Z,35.12
2019-03-24T13:52:58.257Z,32.21
2019-03-24T13:57:10.381Z,31.97
2019-03-24T14:01:16.584Z,29.75
2019-03-24T14:05:22.271Z,30.41
2019-03-24T14:09:27.908Z,29.26
2019-03-24T14:13:33.635Z,31.11
2019-03-24T14:17:39.337Z,30.81
2019-03-24T14:21:48.843Z,29.02
2019-03-24T14:26:01.798Z,30.23
2019-03-24T14:30:29.882Z,29.84
2019-03-24T14:34:35.575Z,31.28
2019-03-24T14:38:44.245Z,30.62
2019-03-24T14:42:49.911Z,25.06
2019-03-24T14:46:55.664Z,24.54
2019-03-24T14:51:01.450Z,24.68
2019-03-24T14:55:07.417Z,28.38
2019-03-24T14:59:13.157Z,25.92
2019-03-24T15:07:36.432Z,25.84
2019-03-24T15:11:42.177Z,28.55
2019-03-24T15:15:47.883Z,26.50
2019-03-24T15:19:53.640Z,26.81
2019-03-24T15:23:59.620Z,27.04
2019-03-24T15:28:05.460Z,25.29
2019-03-24T15:32:11.213Z,27.68
2019-03-24T15:36:16.880Z,27.12
2019-03-24T15:40:22.592Z,25.58
2019-03-24T15:44:48.237Z,26.50
2019-03-24T15:48:54.266Z,24.42
2019-03-24T15:52:59.921Z,23.90
2019-03-24T15:57:05.726Z,24.92
2019-03-24T16:01:11.486Z,27.96
2019-03-24T16:05:17.352Z,25.46
2019-03-24T16:09:25.419Z,26.65
2019-03-24T16:13:31.155Z,26.85
2019-03-24T16:17:36.840Z,25.92
2019-03-24T16:21:42.512Z,28.97
2019-03-24T16:25:48.436Z,28.26
2019-03-24T16:29:54.223Z,26.96
2019-03-24T16:38:16.811Z,30.50
2019-03-24T16:42:22.542Z,28.46
2019-03-24T16:46:28.203Z,29.17
2019-03-24T16:50:34.048Z,29.94
2019-03-24T16:58:57.159Z,30.01
2019-03-24T17:03:02.960Z,31.59
2019-03-24T17:07:10.983Z,32.65
2019-03-24T17:11:17.075Z,32.27
2019-03-24T17:15:22.827Z,33.91
2019-03-24T17:19:28.657Z,34.26
2019-03-24T17:23:36.202Z,34.62
2019-03-24T17:27:44.344Z,34.89
2019-03-24T17:31:50.082Z,37.25
2019-03-24T17:35:55.868Z,38.52
2019-03-24T17:40:01.634Z,38.71
2019-03-24T17:44:12.843Z,39.55
2019-03-24T17:48:18.733Z,40.94
2019-03-24T17:52:24.959Z,41.60
2019-03-24T17:56:30.618Z,41.82
2019-03-24T18:00:56.661Z,42.55
2019-03-24T18:05:02.464Z,43.07
2019-03-24T18:09:10.127Z,42.79
2019-03-24T18:13:15.914Z,43.77
2019-03-24T18:17:21.781Z,43.33
2019-03-24T18:21:27.563Z,43.39
2019-03-24T18:25:33.323Z,44.46
2019-03-24T18:29:39.064Z,44.34
2019-03-24T18:33:44.896Z,44.70
2019-03-24T18:37:50.708Z,44.55
2019-03-24T18:41:56.524Z,45.47
2019-03-24T18:46:06.649Z,45.64
2019-03-24T18:50:34.999Z,45.54
2019-03-24T18:54:42.949Z,46.35
2019-03-24T18:58:48.676Z,47.25
2019-03-24T19:02:54.432Z,47.25
2019-03-24T19:07:18.991Z,48.00
2019-03-24T19:11:24.880Z,48.00
2019-03-24T19:19:47.837Z,48.13
2019-03-24T19:23:55.842Z,48.21
2019-03-24T19:28:06.793Z,48.06
2019-03-24T19:32:31.430Z,48.31
2019-03-24T19:36:37.461Z,48.41
2019-03-24T19:40:43.273Z,49.49
2019-03-24T19:44:49.081Z,49.58
2019-03-24T19:48:54.781Z,49.94
2019-03-24T19:53:00.583Z,50.12
2019-03-24T19:57:08.003Z,50.46
2019-03-24T20:01:13.806Z,50.55
2019-03-24T20:05:19.530Z,50.66
2019-03-24T20:09:25.428Z,51.60
2019-03-24T20:13:31.227Z,51.75
2019-03-24T20:17:36.888Z,51.95
2019-03-24T20:21:42.687Z,52.40
2019-03-24T20:25:48.442Z,53.00
2019-03-24T20:29:54.143Z,53.86
2019-03-24T20:33:59.912Z,54.55
2019-03-24T20:38:05.778Z,54.19
2019-03-24T20:42:22.688Z,54.26
2019-03-24T20:46:28.750Z,55.20
2019-03-24T20:50:34.525Z,55.33
2019-03-24T20:54:40.416Z,55.82
2019-03-24T20:58:46.135Z,56.18
2019-03-24T21:02:51.899Z,56.52
2019-03-24T21:06:57.565Z,57.10
2019-03-24T21:15:46.806Z,57.79
2019-03-24T21:19:52.619Z,57.81
2019-03-24T21:23:58.351Z,58.28
2019-03-24T21:28:04.131Z,58.67
2019-03-24T21:32:10.079Z,58.97
2019-03-24T21:36:17.719Z,59.15
2019-03-24T21:44:43.326Z,58.58
2019-03-24T21:48:50.841Z,58.84
2019-03-24T21:52:56.822Z,58.61
2019-03-24T22:06:13.480Z,59.57
2019-03-24T22:10:19.322Z,59.83
2019-03-24T22:14:25.105Z,60.21
2019-03-24T22:18:30.898Z,60.17
2019-03-24T22:22:36.632Z,60.31
2019-03-24T22:26:42.395Z,60.67
2019-03-24T22:30:48.249Z,60.72
2019-03-24T22:34:54.022Z,61.09
2019-03-24T22:39:01.401Z,61.31
2019-03-24T22:43:20.082Z,61.29
2019-03-24T22:47:25.783Z,61.29
2019-03-24T22:51:31.512Z,61.95
2019-03-24T22:55:37.203Z,62.38
2019-03-24T22:59:45.560Z,62.90
2019-03-24T23:03:51.277Z,63.07
2019-03-24T23:07:57.262Z,63.56
2019-03-24T23:12:03.246Z,63.80
2019-03-24T23:16:08.961Z,64.06
2019-03-24T23:20:14.787Z,64.64
2019-03-24T23:24:20.537Z,65.03
2019-03-24T23:28:26.190Z,65.34
2019-03-24T23:32:32.115Z,65.41
2019-03-24T23:36:37.650Z,65.45
2019-03-24T23:40:43.672Z,65.52
2019-03-24T23:44:50.136Z,65.71
2019-03-24T23:48:55.782Z,65.78
2019-03-24T23:53:01.497Z,65.97
2019-03-24T23:57:07.253Z,65.96
